sensor_id;sensor_type;location;lat;lon;timestamp;temperature;humidity
49236;DHT22;35067;48.134;8.378;2023-08-20T00:00:43;19.00;99.90
49236;DHT22;35067;48.134;8.378;2023-08-20T00:01:44;19.00;99.90
49236;DHT22;35067;48.134;8.378;2023-08-20T00:02:46;18.90;99.90
49236;DHT22;35067;48.134;8.378;2023-08-20T00:03:52;18.90;99.90
49236;DHT22;35067;48.134;8.378;2023-08-20T00:04:54;18.90;99.90
49236;DHT22;35067;48.134;8.378;2023-08-20T00:05:57;18.90;99.90
49236;DHT22;35067;48.134;8.378;2023-08-20T00:06:58;18.90;99.90
49236;DHT22;35067;48.134;8.378;2023-08-20T00:07:59;18.90;99.90
49236;DHT22;35067;48.134;8.378;2023-08-20T00:09:00;18.90;99.90
49236;DHT22;35067;48.134;8.378;2023-08-20T00:10:01;19.00;99.90
49236;DHT22;35067;48.134;8.378;2023-08-20T00:11:04;19.00;99.90
49236;DHT22;35067;48.134;8.378;2023-08-20T00:12:05;19.00;99.90
49236;DHT22;35067;48.134;8.378;2023-08-20T00:13:06;19.00;99.90
49236;DHT22;35067;48.134;8.378;2023-08-20T00:14:07;19.10;99.90
49236;DHT22;35067;48.134;8.378;2023-08-20T00:15:08;19.10;99.90
49236;DHT22;35067;48.134;8.378;2023-08-20T00:16:10;19.10;99.90
49236;DHT22;35067;48.134;8.378;2023-08-20T00:17:10;19.10;99.90
49236;DHT22;35067;48.134;8.378;2023-08-20T00:18:12;19.00;99.90
49236;DHT22;35067;48.134;8.378;2023-08-20T00:19:13;19.00;99.90
49236;DHT22;35067;48.134;8.378;2023-08-20T00:20:14;18.90;99.90
49236;DHT22;35067;48.134;8.378;2023-08-20T00:21:16;18.90;99.90
49236;DHT22;35067;48.134;8.378;2023-08-20T00:22:18;18.90;99.90
49236;DHT22;35067;48.134;8.378;2023-08-20T00:23:19;18.90;99.90
49236;DHT22;35067;48.134;8.378;2023-08-20T00:24:20;18.90;99.90
49236;DHT22;35067;48.134;8.378;2023-08-20T00:25:21;18.90;99.90
49236;DHT22;35067;48.134;8.378;2023-08-20T00:26:22;18.90;99.90
49236;DHT22;35067;48.134;8.378;2023-08-20T00:27:23;18.80;99.90
49236;DHT22;35067;48.134;8.378;2023-08-20T00:28:24;18.80;99.90
49236;DHT22;35067;48.134;8.378;2023-08-20T00:29:24;18.80;99.90
49236;DHT22;35067;48.134;8.378;2023-08-20T00:30:25;18.80;99.90
49236;DHT22;35067;48.134;8.378;2023-08-20T00:31:26;18.80;99.90
49236;DHT22;35067;48.134;8.378;2023-08-20T00:32:26;18.90;99.90
49236;DHT22;35067;48.134;8.378;2023-08-20T00:33:27;18.90;99.90
49236;DHT22;35067;48.134;8.378;2023-08-20T00:34:28;18.90;99.90
49236;DHT22;35067;48.134;8.378;2023-08-20T00:35:29;18.90;99.90
49236;DHT22;35067;48.134;8.378;2023-08-20T00:36:29;18.90;99.90
49236;DHT22;35067;48.134;8.378;2023-08-20T00:37:31;18.90;99.90
49236;DHT22;35067;48.134;8.378;2023-08-20T00:38:32;18.90;99.90
49236;DHT22;35067;48.134;8.378;2023-08-20T00:39:32;18.90;99.90
49236;DHT22;35067;48.134;8.378;2023-08-20T00:40:33;18.90;99.90
49236;DHT22;35067;48.134;8.378;2023-08-20T00:41:34;18.90;99.90
49236;DHT22;35067;48.134;8.378;2023-08-20T00:42:34;18.90;99.90
49236;DHT22;35067;48.134;8.378;2023-08-20T00:43:35;18.90;99.90
49236;DHT22;35067;48.134;8.378;2023-08-20T00:44:36;18.90;99.90
49236;DHT22;35067;48.134;8.378;2023-08-20T00:45:36;18.80;99.90
49236;DHT22;35067;48.134;8.378;2023-08-20T00:46:37;18.80;99.90
49236;DHT22;35067;48.134;8.378;2023-08-20T00:47:38;18.80;99.90
49236;DHT22;35067;48.134;8.378;2023-08-20T00:48:40;18.80;99.90
49236;DHT22;35067;48.134;8.378;2023-08-20T00:49:41;18.70;99.90
49236;DHT22;35067;48.134;8.378;2023-08-20T00:50:42;18.70;99.90
49236;DHT22;35067;48.134;8.378;2023-08-20T00:51:43;18.80;99.90
49236;DHT22;35067;48.134;8.378;2023-08-20T00:52:46;18.70;99.90
49236;DHT22;35067;48.134;8.378;2023-08-20T00:53:46;18.70;99.90
49236;DHT22;35067;48.134;8.378;2023-08-20T00:54:48;18.70;99.90
49236;DHT22;35067;48.134;8.378;2023-08-20T00:55:49;18.70;99.90
49236;DHT22;35067;48.134;8.378;2023-08-20T00:56:51;18.70;99.90
49236;DHT22;35067;48.134;8.378;2023-08-20T00:57:51;18.70;99.90
49236;DHT22;35067;48.134;8.378;2023-08-20T00:58:53;18.80;99.90
49236;DHT22;35067;48.134;8.378;2023-08-20T00:59:55;18.70;99.90
49236;DHT22;35067;48.134;8.378;2023-08-20T01:00:56;18.70;99.90
49236;DHT22;35067;48.134;8.378;2023-08-20T01:01:57;18.70;99.90
49236;DHT22;35067;48.134;8.378;2023-08-20T01:02:58;18.70;99.90
49236;DHT22;35067;48.134;8.378;2023-08-20T01:03:59;18.80;99.90
49236;DHT22;35067;48.134;8.378;2023-08-20T01:05:00;18.80;99.90
49236;DHT22;35067;48.134;8.378;2023-08-20T01:08:53;18.80;99.90
49236;DHT22;35067;48.134;8.378;2023-08-20T01:11:26;18.60;99.90
49236;DHT22;35067;48.134;8.378;2023-08-20T01:12:31;18.60;99.90
49236;DHT22;35067;48.134;8.378;2023-08-20T01:13:32;18.60;99.90
49236;DHT22;35067;48.134;8.378;2023-08-20T01:14:32;18.50;99.90
49236;DHT22;35067;48.134;8.378;2023-08-20T01:15:33;18.50;99.90
49236;DHT22;35067;48.134;8.378;2023-08-20T01:16:34;18.50;99.90
49236;DHT22;35067;48.134;8.378;2023-08-20T01:17:34;18.50;99.90
49236;DHT22;35067;48.134;8.378;2023-08-20T01:18:35;18.50;99.90
49236;DHT22;35067;48.134;8.378;2023-08-20T01:19:36;18.50;99.90
49236;DHT22;35067;48.134;8.378;2023-08-20T01:20:41;18.50;99.90
49236;DHT22;35067;48.134;8.378;2023-08-20T01:23:57;18.40;99.90
49236;DHT22;35067;48.134;8.378;2023-08-20T01:25:22;18.40;99.90
49236;DHT22;35067;48.134;8.378;2023-08-20T01:26:35;18.40;99.90
49236;DHT22;35067;48.134;8.378;2023-08-20T01:27:57;18.40;99.90
49236;DHT22;35067;48.134;8.378;2023-08-20T01:29:03;18.30;99.90
49236;DHT22;35067;48.134;8.378;2023-08-20T01:30:05;18.20;99.90
49236;DHT22;35067;48.134;8.378;2023-08-20T01:31:08;18.20;99.90
49236;DHT22;35067;48.134;8.378;2023-08-20T01:32:09;18.10;99.90
49236;DHT22;35067;48.134;8.378;2023-08-20T01:33:11;18.20;99.90
49236;DHT22;35067;48.134;8.378;2023-08-20T01:34:15;18.20;99.90
49236;DHT22;35067;48.134;8.378;2023-08-20T01:35:16;18.20;99.90
49236;DHT22;35067;48.134;8.378;2023-08-20T01:36:17;18.00;99.90
49236;DHT22;35067;48.134;8.378;2023-08-20T01:37:18;18.00;99.90
49236;DHT22;35067;48.134;8.378;2023-08-20T01:38:19;18.00;99.90
49236;DHT22;35067;48.134;8.378;2023-08-20T01:39:20;18.10;99.90
49236;DHT22;35067;48.134;8.378;2023-08-20T01:40:21;18.10;99.90
49236;DHT22;35067;48.134;8.378;2023-08-20T01:41:21;18.00;99.90
49236;DHT22;35067;48.134;8.378;2023-08-20T01:42:22;18.00;99.90
49236;DHT22;35067;48.134;8.378;2023-08-20T01:43:23;18.10;99.90
49236;DHT22;35067;48.134;8.378;2023-08-20T01:44:23;18.10;99.90
49236;DHT22;35067;48.134;8.378;2023-08-20T01:45:24;18.10;99.90
49236;DHT22;35067;48.134;8.378;2023-08-20T01:46:26;18.20;99.90
49236;DHT22;35067;48.134;8.378;2023-08-20T01:47:27;18.20;99.90
49236;DHT22;35067;48.134;8.378;2023-08-20T01:48:27;18.20;99.90
49236;DHT22;35067;48.134;8.378;2023-08-20T01:49:28;18.20;99.90
49236;DHT22;35067;48.134;8.378;2023-08-20T01:50:29;18.20;99.90
49236;DHT22;35067;48.134;8.378;2023-08-20T01:51:30;18.30;99.90
49236;DHT22;35067;48.134;8.378;2023-08-20T01:52:31;18.20;99.90
49236;DHT22;35067;48.134;8.378;2023-08-20T01:53:32;18.20;99.90
49236;DHT22;35067;48.134;8.378;2023-08-20T01:54:32;18.20;99.90
49236;DHT22;35067;48.134;8.378;2023-08-20T01:55:33;18.20;99.90
49236;DHT22;35067;48.134;8.378;2023-08-20T01:56:34;18.30;99.90
49236;DHT22;35067;48.134;8.378;2023-08-20T01:57:34;18.30;99.90
49236;DHT22;35067;48.134;8.378;2023-08-20T01:58:36;18.20;99.90
49236;DHT22;35067;48.134;8.378;2023-08-20T01:59:37;18.20;99.90
49236;DHT22;35067;48.134;8.378;2023-08-20T02:00:37;18.20;99.90
49236;DHT22;35067;48.134;8.378;2023-08-20T02:01:38;18.20;99.90
49236;DHT22;35067;48.134;8.378;2023-08-20T02:02:39;18.20;99.90
49236;DHT22;35067;48.134;8.378;2023-08-20T02:03:39;18.20;99.90
49236;DHT22;35067;48.134;8.378;2023-08-20T02:04:40;18.20;99.90
49236;DHT22;35067;48.134;8.378;2023-08-20T02:05:41;18.20;99.90
49236;DHT22;35067;48.134;8.378;2023-08-20T02:06:42;18.10;99.90
49236;DHT22;35067;48.134;8.378;2023-08-20T02:07:42;18.20;99.90
49236;DHT22;35067;48.134;8.378;2023-08-20T02:08:43;18.20;99.90
49236;DHT22;35067;48.134;8.378;2023-08-20T02:09:44;18.20;99.90
49236;DHT22;35067;48.134;8.378;2023-08-20T02:10:44;18.20;99.90
49236;DHT22;35067;48.134;8.378;2023-08-20T02:11:45;18.20;99.90
49236;DHT22;35067;48.134;8.378;2023-08-20T02:12:46;18.20;99.90
49236;DHT22;35067;48.134;8.378;2023-08-20T02:13:47;18.20;99.90
49236;DHT22;35067;48.134;8.378;2023-08-20T02:14:47;18.20;99.90
49236;DHT22;35067;48.134;8.378;2023-08-20T02:15:57;18.20;99.90
49236;DHT22;35067;48.134;8.378;2023-08-20T02:17:02;18.20;99.90
49236;DHT22;35067;48.134;8.378;2023-08-20T02:18:03;18.20;99.90
49236;DHT22;35067;48.134;8.378;2023-08-20T02:19:04;18.10;99.90
49236;DHT22;35067;48.134;8.378;2023-08-20T02:20:07;18.00;99.90
49236;DHT22;35067;48.134;8.378;2023-08-20T02:21:10;18.00;99.90
49236;DHT22;35067;48.134;8.378;2023-08-20T02:22:11;18.00;99.90
49236;DHT22;35067;48.134;8.378;2023-08-20T02:23:11;18.00;99.90
49236;DHT22;35067;48.134;8.378;2023-08-20T02:24:12;18.00;99.90
49236;DHT22;35067;48.134;8.378;2023-08-20T02:25:13;18.10;99.90
49236;DHT22;35067;48.134;8.378;2023-08-20T02:26:14;18.00;99.90
49236;DHT22;35067;48.134;8.378;2023-08-20T02:27:15;18.00;99.90
49236;DHT22;35067;48.134;8.378;2023-08-20T02:28:16;18.10;99.90
49236;DHT22;35067;48.134;8.378;2023-08-20T02:29:16;18.10;99.90
49236;DHT22;35067;48.134;8.378;2023-08-20T02:30:17;18.10;99.90
49236;DHT22;35067;48.134;8.378;2023-08-20T02:31:21;18.00;99.90
49236;DHT22;35067;48.134;8.378;2023-08-20T02:32:22;18.00;99.90
49236;DHT22;35067;48.134;8.378;2023-08-20T02:33:22;18.00;99.90
49236;DHT22;35067;48.134;8.378;2023-08-20T02:34:23;18.00;99.90
49236;DHT22;35067;48.134;8.378;2023-08-20T02:35:24;18.00;99.90
49236;DHT22;35067;48.134;8.378;2023-08-20T02:36:24;18.00;99.90
49236;DHT22;35067;48.134;8.378;2023-08-20T02:37:25;18.00;99.90
49236;DHT22;35067;48.134;8.378;2023-08-20T02:38:26;17.90;99.90
49236;DHT22;35067;48.134;8.378;2023-08-20T02:39:27;17.90;99.90
49236;DHT22;35067;48.134;8.378;2023-08-20T02:40:28;17.90;99.90
49236;DHT22;35067;48.134;8.378;2023-08-20T02:41:28;17.90;99.90
49236;DHT22;35067;48.134;8.378;2023-08-20T02:42:29;18.00;99.90
49236;DHT22;35067;48.134;8.378;2023-08-20T02:43:30;18.00;99.90
49236;DHT22;35067;48.134;8.378;2023-08-20T02:44:31;18.10;99.90
49236;DHT22;35067;48.134;8.378;2023-08-20T02:45:31;18.10;99.90
49236;DHT22;35067;48.134;8.378;2023-08-20T02:46:32;18.20;99.90
49236;DHT22;35067;48.134;8.378;2023-08-20T02:47:33;18.20;99.90
49236;DHT22;35067;48.134;8.378;2023-08-20T02:48:33;18.20;99.90
49236;DHT22;35067;48.134;8.378;2023-08-20T02:49:34;18.20;99.90
49236;DHT22;35067;48.134;8.378;2023-08-20T02:50:35;18.20;99.90
49236;DHT22;35067;48.134;8.378;2023-08-20T02:51:36;18.30;99.90
49236;DHT22;35067;48.134;8.378;2023-08-20T02:52:37;18.30;99.90
49236;DHT22;35067;48.134;8.378;2023-08-20T02:53:38;18.30;99.90
49236;DHT22;35067;48.134;8.378;2023-08-20T02:54:38;18.40;99.90
49236;DHT22;35067;48.134;8.378;2023-08-20T02:55:39;18.40;99.90
49236;DHT22;35067;48.134;8.378;2023-08-20T02:56:40;18.50;99.90
49236;DHT22;35067;48.134;8.378;2023-08-20T02:57:40;18.50;99.90
49236;DHT22;35067;48.134;8.378;2023-08-20T02:58:41;18.50;99.90
49236;DHT22;35067;48.134;8.378;2023-08-20T02:59:42;18.50;99.90
49236;DHT22;35067;48.134;8.378;2023-08-20T03:00:42;18.50;99.90
49236;DHT22;35067;48.134;8.378;2023-08-20T03:01:45;18.60;99.90
49236;DHT22;35067;48.134;8.378;2023-08-20T03:02:46;18.60;99.90
49236;DHT22;35067;48.134;8.378;2023-08-20T03:03:46;18.50;99.90
49236;DHT22;35067;48.134;8.378;2023-08-20T03:04:47;18.50;99.90
49236;DHT22;35067;48.134;8.378;2023-08-20T03:05:48;18.50;99.90
49236;DHT22;35067;48.134;8.378;2023-08-20T03:06:49;18.50;99.90
49236;DHT22;35067;48.134;8.378;2023-08-20T03:07:49;18.40;99.90
49236;DHT22;35067;48.134;8.378;2023-08-20T03:08:50;18.40;99.90
49236;DHT22;35067;48.134;8.378;2023-08-20T03:09:51;18.40;99.90
49236;DHT22;35067;48.134;8.378;2023-08-20T03:10:51;18.40;99.90
49236;DHT22;35067;48.134;8.378;2023-08-20T03:11:52;18.30;99.90
49236;DHT22;35067;48.134;8.378;2023-08-20T03:12:53;18.30;99.90
49236;DHT22;35067;48.134;8.378;2023-08-20T03:13:54;18.30;99.90
49236;DHT22;35067;48.134;8.378;2023-08-20T03:14:55;18.30;99.90
49236;DHT22;35067;48.134;8.378;2023-08-20T03:15:56;18.30;99.90
49236;DHT22;35067;48.134;8.378;2023-08-20T03:16:56;18.30;99.90
49236;DHT22;35067;48.134;8.378;2023-08-20T03:17:57;18.30;99.90
49236;DHT22;35067;48.134;8.378;2023-08-20T03:18:58;18.20;99.90
49236;DHT22;35067;48.134;8.378;2023-08-20T03:20:00;18.30;99.90
49236;DHT22;35067;48.134;8.378;2023-08-20T03:21:01;18.30;99.90
49236;DHT22;35067;48.134;8.378;2023-08-20T03:22:01;18.30;99.90
49236;DHT22;35067;48.134;8.378;2023-08-20T03:23:02;18.30;99.90
49236;DHT22;35067;48.134;8.378;2023-08-20T03:24:03;18.20;99.90
49236;DHT22;35067;48.134;8.378;2023-08-20T03:25:05;18.20;99.90
49236;DHT22;35067;48.134;8.378;2023-08-20T03:26:06;18.30;99.90
49236;DHT22;35067;48.134;8.378;2023-08-20T03:27:07;18.30;99.90
49236;DHT22;35067;48.134;8.378;2023-08-20T03:28:08;18.30;99.90
49236;DHT22;35067;48.134;8.378;2023-08-20T03:29:09;18.30;99.90
49236;DHT22;35067;48.134;8.378;2023-08-20T03:30:10;18.20;99.90
49236;DHT22;35067;48.134;8.378;2023-08-20T03:31:11;18.20;99.90
49236;DHT22;35067;48.134;8.378;2023-08-20T03:32:12;18.10;99.90
49236;DHT22;35067;48.134;8.378;2023-08-20T03:33:12;18.10;99.90
49236;DHT22;35067;48.134;8.378;2023-08-20T03:34:13;18.20;99.90
49236;DHT22;35067;48.134;8.378;2023-08-20T03:35:14;18.10;99.90
49236;DHT22;35067;48.134;8.378;2023-08-20T03:36:14;18.20;99.90
49236;DHT22;35067;48.134;8.378;2023-08-20T03:37:15;18.20;99.90
49236;DHT22;35067;48.134;8.378;2023-08-20T03:38:16;18.20;99.90
49236;DHT22;35067;48.134;8.378;2023-08-20T03:39:17;18.20;99.90
49236;DHT22;35067;48.134;8.378;2023-08-20T03:40:18;18.10;99.90
49236;DHT22;35067;48.134;8.378;2023-08-20T03:41:18;18.10;99.90
49236;DHT22;35067;48.134;8.378;2023-08-20T03:42:19;18.10;99.90
49236;DHT22;35067;48.134;8.378;2023-08-20T03:43:20;18.10;99.90
49236;DHT22;35067;48.134;8.378;2023-08-20T03:44:21;18.10;99.90
49236;DHT22;35067;48.134;8.378;2023-08-20T03:45:21;18.10;99.90
49236;DHT22;35067;48.134;8.378;2023-08-20T03:46:22;18.10;99.90
49236;DHT22;35067;48.134;8.378;2023-08-20T03:47:23;18.10;99.90
49236;DHT22;35067;48.134;8.378;2023-08-20T03:48:24;18.10;99.90
49236;DHT22;35067;48.134;8.378;2023-08-20T03:49:24;18.10;99.90
49236;DHT22;35067;48.134;8.378;2023-08-20T03:50:25;18.10;99.90
49236;DHT22;35067;48.134;8.378;2023-08-20T03:51:26;18.20;99.90
49236;DHT22;35067;48.134;8.378;2023-08-20T03:52:26;18.10;99.90
49236;DHT22;35067;48.134;8.378;2023-08-20T03:53:27;18.20;99.90
49236;DHT22;35067;48.134;8.378;2023-08-20T03:54:29;18.20;99.90
49236;DHT22;35067;48.134;8.378;2023-08-20T03:55:29;18.10;99.90
49236;DHT22;35067;48.134;8.378;2023-08-20T03:56:30;18.10;99.90
49236;DHT22;35067;48.134;8.378;2023-08-20T03:57:31;18.10;99.90
49236;DHT22;35067;48.134;8.378;2023-08-20T03:58:32;18.10;99.90
49236;DHT22;35067;48.134;8.378;2023-08-20T03:59:33;18.10;99.90
49236;DHT22;35067;48.134;8.378;2023-08-20T04:00:35;18.10;99.90
49236;DHT22;35067;48.134;8.378;2023-08-20T04:01:36;18.10;99.90
49236;DHT22;35067;48.134;8.378;2023-08-20T04:02:37;18.20;99.90
49236;DHT22;35067;48.134;8.378;2023-08-20T04:03:38;18.20;99.90
49236;DHT22;35067;48.134;8.378;2023-08-20T04:04:39;18.10;99.90
49236;DHT22;35067;48.134;8.378;2023-08-20T04:05:40;18.00;99.90
49236;DHT22;35067;48.134;8.378;2023-08-20T04:06:41;18.00;99.90
49236;DHT22;35067;48.134;8.378;2023-08-20T04:07:41;18.00;99.90
49236;DHT22;35067;48.134;8.378;2023-08-20T04:08:42;18.00;99.90
49236;DHT22;35067;48.134;8.378;2023-08-20T04:09:43;18.00;99.90
49236;DHT22;35067;48.134;8.378;2023-08-20T04:10:44;18.00;99.90
49236;DHT22;35067;48.134;8.378;2023-08-20T04:11:45;18.00;99.90
49236;DHT22;35067;48.134;8.378;2023-08-20T04:12:46;18.00;99.90
49236;DHT22;35067;48.134;8.378;2023-08-20T04:13:47;18.00;99.90
49236;DHT22;35067;48.134;8.378;2023-08-20T04:14:48;18.00;99.90
49236;DHT22;35067;48.134;8.378;2023-08-20T04:15:49;18.00;99.90
49236;DHT22;35067;48.134;8.378;2023-08-20T04:16:50;18.00;99.90
49236;DHT22;35067;48.134;8.378;2023-08-20T04:17:50;18.00;99.90
49236;DHT22;35067;48.134;8.378;2023-08-20T04:18:51;18.00;99.90
49236;DHT22;35067;48.134;8.378;2023-08-20T04:19:52;18.00;99.90
49236;DHT22;35067;48.134;8.378;2023-08-20T04:20:53;17.90;99.90
49236;DHT22;35067;48.134;8.378;2023-08-20T04:21:54;17.80;99.90
49236;DHT22;35067;48.134;8.378;2023-08-20T04:22:54;17.80;99.90
49236;DHT22;35067;48.134;8.378;2023-08-20T04:23:55;17.70;99.90
49236;DHT22;35067;48.134;8.378;2023-08-20T04:24:56;17.70;99.90
49236;DHT22;35067;48.134;8.378;2023-08-20T04:25:56;17.60;99.90
49236;DHT22;35067;48.134;8.378;2023-08-20T04:26:57;17.60;99.90
49236;DHT22;35067;48.134;8.378;2023-08-20T04:27:58;17.50;99.90
49236;DHT22;35067;48.134;8.378;2023-08-20T04:29:00;17.50;99.90
49236;DHT22;35067;48.134;8.378;2023-08-20T04:30:00;17.50;99.90
49236;DHT22;35067;48.134;8.378;2023-08-20T04:31:01;17.60;99.90
49236;DHT22;35067;48.134;8.378;2023-08-20T04:32:02;17.60;99.90
49236;DHT22;35067;48.134;8.378;2023-08-20T04:33:04;17.70;99.90
49236;DHT22;35067;48.134;8.378;2023-08-20T04:34:05;17.70;99.90
49236;DHT22;35067;48.134;8.378;2023-08-20T04:35:06;17.80;99.90
49236;DHT22;35067;48.134;8.378;2023-08-20T04:36:07;17.80;99.90
49236;DHT22;35067;48.134;8.378;2023-08-20T04:37:07;17.80;99.90
49236;DHT22;35067;48.134;8.378;2023-08-20T04:38:08;17.80;99.90
49236;DHT22;35067;48.134;8.378;2023-08-20T04:39:09;17.80;99.90
49236;DHT22;35067;48.134;8.378;2023-08-20T04:40:10;17.90;99.90
49236;DHT22;35067;48.134;8.378;2023-08-20T04:41:12;17.90;99.90
49236;DHT22;35067;48.134;8.378;2023-08-20T04:42:13;17.90;99.90
49236;DHT22;35067;48.134;8.378;2023-08-20T04:43:14;17.90;99.90
49236;DHT22;35067;48.134;8.378;2023-08-20T04:44:15;17.90;99.90
49236;DHT22;35067;48.134;8.378;2023-08-20T04:45:16;18.00;99.90
49236;DHT22;35067;48.134;8.378;2023-08-20T04:46:19;18.00;99.90
49236;DHT22;35067;48.134;8.378;2023-08-20T04:47:21;18.00;99.90
49236;DHT22;35067;48.134;8.378;2023-08-20T04:48:21;18.10;99.90
49236;DHT22;35067;48.134;8.378;2023-08-20T04:49:22;18.20;99.90
49236;DHT22;35067;48.134;8.378;2023-08-20T04:50:23;18.20;99.90
49236;DHT22;35067;48.134;8.378;2023-08-20T04:51:24;18.20;99.90
49236;DHT22;35067;48.134;8.378;2023-08-20T04:52:24;18.30;99.90
49236;DHT22;35067;48.134;8.378;2023-08-20T04:53:25;18.30;99.90
49236;DHT22;35067;48.134;8.378;2023-08-20T04:54:26;18.40;99.90
49236;DHT22;35067;48.134;8.378;2023-08-20T04:55:30;18.40;99.90
49236;DHT22;35067;48.134;8.378;2023-08-20T04:56:30;18.40;99.90
49236;DHT22;35067;48.134;8.378;2023-08-20T04:57:31;18.50;99.90
49236;DHT22;35067;48.134;8.378;2023-08-20T04:58:32;18.50;99.90
49236;DHT22;35067;48.134;8.378;2023-08-20T04:59:33;18.60;99.90
49236;DHT22;35067;48.134;8.378;2023-08-20T05:00:34;18.60;99.90
49236;DHT22;35067;48.134;8.378;2023-08-20T05:01:34;18.70;99.90
49236;DHT22;35067;48.134;8.378;2023-08-20T05:02:35;18.80;99.90
49236;DHT22;35067;48.134;8.378;2023-08-20T05:03:36;18.80;99.90
49236;DHT22;35067;48.134;8.378;2023-08-20T05:04:36;18.90;99.90
49236;DHT22;35067;48.134;8.378;2023-08-20T05:05:37;19.00;99.90
49236;DHT22;35067;48.134;8.378;2023-08-20T05:06:38;19.10;99.90
49236;DHT22;35067;48.134;8.378;2023-08-20T05:07:39;19.10;99.90
49236;DHT22;35067;48.134;8.378;2023-08-20T05:08:39;19.20;99.90
49236;DHT22;35067;48.134;8.378;2023-08-20T05:09:40;19.30;99.90
49236;DHT22;35067;48.134;8.378;2023-08-20T05:10:41;19.40;99.90
49236;DHT22;35067;48.134;8.378;2023-08-20T05:11:42;19.50;99.90
49236;DHT22;35067;48.134;8.378;2023-08-20T05:12:43;19.50;99.90
49236;DHT22;35067;48.134;8.378;2023-08-20T05:13:45;19.60;99.90
49236;DHT22;35067;48.134;8.378;2023-08-20T05:14:47;19.60;99.90
49236;DHT22;35067;48.134;8.378;2023-08-20T05:15:48;19.70;99.90
49236;DHT22;35067;48.134;8.378;2023-08-20T05:16:48;19.80;99.90
49236;DHT22;35067;48.134;8.378;2023-08-20T05:17:49;19.80;99.90
49236;DHT22;35067;48.134;8.378;2023-08-20T05:18:50;19.80;99.90
49236;DHT22;35067;48.134;8.378;2023-08-20T05:19:51;19.70;99.90
49236;DHT22;35067;48.134;8.378;2023-08-20T05:20:51;19.70;99.90
49236;DHT22;35067;48.134;8.378;2023-08-20T05:21:52;19.80;99.90
49236;DHT22;35067;48.134;8.378;2023-08-20T05:22:56;19.90;99.90
49236;DHT22;35067;48.134;8.378;2023-08-20T05:23:57;19.80;99.90
49236;DHT22;35067;48.134;8.378;2023-08-20T05:24:57;19.70;99.90
49236;DHT22;35067;48.134;8.378;2023-08-20T05:25:58;19.80;99.90
49236;DHT22;35067;48.134;8.378;2023-08-20T05:27:10;19.80;99.90
49236;DHT22;35067;48.134;8.378;2023-08-20T05:28:14;19.80;99.90
49236;DHT22;35067;48.134;8.378;2023-08-20T05:29:15;19.90;99.90
49236;DHT22;35067;48.134;8.378;2023-08-20T05:30:16;19.80;99.90
49236;DHT22;35067;48.134;8.378;2023-08-20T05:31:16;19.80;99.90
49236;DHT22;35067;48.134;8.378;2023-08-20T05:32:17;19.80;99.90
49236;DHT22;35067;48.134;8.378;2023-08-20T05:33:18;19.80;99.90
49236;DHT22;35067;48.134;8.378;2023-08-20T05:34:19;19.80;99.90
49236;DHT22;35067;48.134;8.378;2023-08-20T05:35:19;19.80;99.90
49236;DHT22;35067;48.134;8.378;2023-08-20T05:36:20;19.90;99.90
49236;DHT22;35067;48.134;8.378;2023-08-20T05:37:21;19.90;99.90
49236;DHT22;35067;48.134;8.378;2023-08-20T05:38:21;19.90;99.90
49236;DHT22;35067;48.134;8.378;2023-08-20T05:39:22;20.00;99.90
49236;DHT22;35067;48.134;8.378;2023-08-20T05:40:23;20.10;99.90
49236;DHT22;35067;48.134;8.378;2023-08-20T05:41:24;20.20;99.90
49236;DHT22;35067;48.134;8.378;2023-08-20T05:42:24;20.10;99.90
49236;DHT22;35067;48.134;8.378;2023-08-20T05:43:25;20.10;99.90
49236;DHT22;35067;48.134;8.378;2023-08-20T05:44:26;20.20;99.90
49236;DHT22;35067;48.134;8.378;2023-08-20T05:45:27;20.20;99.90
49236;DHT22;35067;48.134;8.378;2023-08-20T05:46:27;20.30;99.90
49236;DHT22;35067;48.134;8.378;2023-08-20T05:47:28;20.30;99.90
49236;DHT22;35067;48.134;8.378;2023-08-20T05:48:29;20.30;99.90
49236;DHT22;35067;48.134;8.378;2023-08-20T05:49:30;20.40;99.90
49236;DHT22;35067;48.134;8.378;2023-08-20T05:50:30;20.40;99.90
49236;DHT22;35067;48.134;8.378;2023-08-20T05:51:31;20.40;99.90
49236;DHT22;35067;48.134;8.378;2023-08-20T05:52:32;20.50;99.90
49236;DHT22;35067;48.134;8.378;2023-08-20T05:53:32;20.60;99.90
49236;DHT22;35067;48.134;8.378;2023-08-20T05:54:33;20.70;99.90
49236;DHT22;35067;48.134;8.378;2023-08-20T05:55:34;20.80;99.90
49236;DHT22;35067;48.134;8.378;2023-08-20T05:56:34;20.90;99.90
49236;DHT22;35067;48.134;8.378;2023-08-20T05:57:36;20.90;99.90
49236;DHT22;35067;48.134;8.378;2023-08-20T05:58:37;20.80;99.90
49236;DHT22;35067;48.134;8.378;2023-08-20T05:59:38;20.90;99.90
49236;DHT22;35067;48.134;8.378;2023-08-20T06:00:38;20.90;99.90
49236;DHT22;35067;48.134;8.378;2023-08-20T06:01:39;20.80;99.90
49236;DHT22;35067;48.134;8.378;2023-08-20T06:02:40;20.90;99.90
49236;DHT22;35067;48.134;8.378;2023-08-20T06:03:41;20.90;99.90
49236;DHT22;35067;48.134;8.378;2023-08-20T06:04:41;20.90;99.90
49236;DHT22;35067;48.134;8.378;2023-08-20T06:05:42;20.90;99.90
49236;DHT22;35067;48.134;8.378;2023-08-20T06:06:43;21.00;99.90
49236;DHT22;35067;48.134;8.378;2023-08-20T06:07:43;21.10;99.90
49236;DHT22;35067;48.134;8.378;2023-08-20T06:08:44;21.00;99.90
49236;DHT22;35067;48.134;8.378;2023-08-20T06:09:45;21.00;99.90
49236;DHT22;35067;48.134;8.378;2023-08-20T06:10:46;21.10;99.90
49236;DHT22;35067;48.134;8.378;2023-08-20T06:11:46;21.00;99.90
49236;DHT22;35067;48.134;8.378;2023-08-20T06:12:47;21.00;99.90
49236;DHT22;35067;48.134;8.378;2023-08-20T06:13:48;21.00;99.90
49236;DHT22;35067;48.134;8.378;2023-08-20T06:14:49;21.00;99.90
49236;DHT22;35067;48.134;8.378;2023-08-20T06:15:50;21.00;99.90
49236;DHT22;35067;48.134;8.378;2023-08-20T06:16:50;21.10;99.90
49236;DHT22;35067;48.134;8.378;2023-08-20T06:17:51;21.20;99.90
49236;DHT22;35067;48.134;8.378;2023-08-20T06:18:52;21.10;99.90
49236;DHT22;35067;48.134;8.378;2023-08-20T06:19:52;21.10;99.90
49236;DHT22;35067;48.134;8.378;2023-08-20T06:20:53;21.10;99.90
49236;DHT22;35067;48.134;8.378;2023-08-20T06:21:54;21.10;99.90
49236;DHT22;35067;48.134;8.378;2023-08-20T06:22:55;21.10;99.90
49236;DHT22;35067;48.134;8.378;2023-08-20T06:23:55;21.10;99.90
49236;DHT22;35067;48.134;8.378;2023-08-20T06:24:56;21.20;99.90
49236;DHT22;35067;48.134;8.378;2023-08-20T06:25:58;21.20;99.90
49236;DHT22;35067;48.134;8.378;2023-08-20T06:26:59;21.10;99.90
49236;DHT22;35067;48.134;8.378;2023-08-20T06:27:59;21.20;99.90
49236;DHT22;35067;48.134;8.378;2023-08-20T06:29:00;21.20;99.90
49236;DHT22;35067;48.134;8.378;2023-08-20T06:30:01;21.20;99.90
49236;DHT22;35067;48.134;8.378;2023-08-20T06:31:01;21.20;99.90
49236;DHT22;35067;48.134;8.378;2023-08-20T06:32:02;21.20;99.90
49236;DHT22;35067;48.134;8.378;2023-08-20T06:33:03;21.30;99.90